Time;durP1;ratioP1;P1;durP2;ratioP2;P2;SDS_P1;SDS_P2;PMS_P1;PMS_P2;Temp;Humidity;BMP_temperature;BMP_pressure;BME280_temperature;BME280_humidity;BME280_pressure;Samples;Min_cycle;Max_cycle;Signal;HPM_P1;HPM_P2
2024/01/26 00:01:53;;;;;;;16.47;3.63;;;;;;;4.25;79.98;98600.66;6124528;29;20199;-64
2024/01/26 00:04:56;;;;;;;12.17;4.10;;;;;;;4.23;80.18;98603.44;6124487;29;20190;-61
2024/01/26 00:07:59;;;;;;;14.17;3.53;;;;;;;4.09;81.08;98588.44;6124781;29;20202;-65
2024/01/26 00:11:02;;;;;;;20.77;4.00;;;;;;;4.19;80.32;98590.78;6124643;29;20258;-63
2024/01/26 00:14:05;;;;;;;13.97;4.10;;;;;;;4.16;80.19;98586.72;6107704;29;20274;-61
2024/01/26 00:17:07;;;;;;;13.93;3.57;;;;;;;4.18;80.21;98587.34;6121291;29;20203;-62
2024/01/26 00:20:10;;;;;;;13.67;3.83;;;;;;;4.24;79.38;98565.56;6124717;29;20316;-65
2024/01/26 00:23:13;;;;;;;14.93;4.20;;;;;;;4.24;79.57;98572.66;6114580;29;20218;-63
2024/01/26 00:26:15;;;;;;;11.37;3.63;;;;;;;4.21;79.43;98570.34;6124265;29;20584;-64
2024/01/26 00:29:18;;;;;;;13.27;3.67;;;;;;;4.27;78.79;98575.72;6122900;29;20187;-64
2024/01/26 00:32:21;;;;;;;8.90;3.97;;;;;;;4.36;78.36;98576.47;6122405;29;20210;-65
2024/01/26 00:35:23;;;;;;;11.33;3.40;;;;;;;4.44;77.93;98576.41;6124397;29;20239;-63
2024/01/26 00:38:25;;;;;;;15.53;3.47;;;;;;;4.29;78.68;98572.94;6121144;29;20326;-61
2024/01/26 00:41:28;;;;;;;16.43;3.87;;;;;;;4.36;77.77;98585.22;6123464;29;20211;-62
2024/01/26 00:44:30;;;;;;;11.93;3.20;;;;;;;4.42;78.20;98593.41;6123966;29;20199;-62
2024/01/26 00:47:33;;;;;;;13.93;3.80;;;;;;;4.42;78.45;98582.84;6122768;29;20671;-62
2024/01/26 00:50:36;;;;;;;14.37;3.43;;;;;;;4.51;77.62;98587.03;6122770;29;20207;-63
2024/01/26 00:53:38;;;;;;;14.97;3.83;;;;;;;4.48;77.59;98582.13;6123189;29;20754;-61
2024/01/26 00:56:41;;;;;;;15.73;3.50;;;;;;;4.41;78.14;98605.78;6123486;29;20193;-63
2024/01/26 00:59:44;;;;;;;14.80;3.67;;;;;;;4.54;77.56;98590.16;6123660;29;20199;-60
2024/01/26 01:02:46;;;;;;;14.27;3.33;;;;;;;4.56;76.92;98617.16;6123446;29;20264;-63
2024/01/26 01:05:48;;;;;;;13.00;3.33;;;;;;;4.54;76.69;98613.91;6128163;29;20290;-63
2024/01/26 01:08:52;;;;;;;10.60;3.53;;;;;;;4.73;76.05;98606.44;6121466;29;20249;-64
2024/01/26 01:11:54;;;;;;;11.63;3.20;;;;;;;4.41;76.19;98571.47;6123417;29;20194;-63
2024/01/26 01:14:58;;;;;;;14.70;3.87;;;;;;;4.39;77.20;98600.69;6122973;29;20692;-64
2024/01/26 01:18:01;;;;;;;13.10;3.53;;;;;;;4.65;75.89;98615.28;6122795;29;20208;-62
2024/01/26 01:21:04;;;;;;;11.87;3.37;;;;;;;4.57;76.05;98610.88;6123353;29;20199;-64
2024/01/26 01:24:07;;;;;;;11.83;4.03;;;;;;;4.47;76.21;98609.50;6120242;29;20211;-63
2024/01/26 01:27:09;;;;;;;16.43;3.73;;;;;;;4.60;75.77;98607.88;6123057;29;20199;-62
2024/01/26 01:30:12;;;;;;;14.17;3.53;;;;;;;4.64;75.67;98614.47;6122562;29;20672;-63
2024/01/26 01:33:14;;;;;;;8.90;3.00;;;;;;;4.66;75.42;98608.97;6121148;29;20200;-62
2024/01/26 01:36:17;;;;;;;14.97;3.43;;;;;;;4.64;75.12;98618.91;6119226;29;20663;-64
2024/01/26 01:39:20;;;;;;;17.27;4.53;;;;;;;4.53;75.89;98614.06;6121519;29;20695;-63
2024/01/26 01:42:22;;;;;;;16.60;4.13;;;;;;;4.53;75.21;98600.88;6122193;29;20593;-64
2024/01/26 01:45:24;;;;;;;12.17;3.60;;;;;;;4.61;74.65;98612.16;6122659;29;20195;-64
2024/01/26 01:48:27;;;;;;;16.77;3.53;;;;;;;4.70;74.01;98612.09;6122590;29;20229;-60
2024/01/26 01:51:33;;;;;;;12.73;3.23;;;;;;;4.72;74.29;98608.25;6122460;29;20283;-63
2024/01/26 01:54:37;;;;;;;16.17;3.87;;;;;;;4.56;74.17;98606.59;6122106;29;20242;-64
2024/01/26 01:57:40;;;;;;;15.07;3.90;;;;;;;4.60;74.08;98609.72;6122592;29;20495;-63
2024/01/26 02:00:43;;;;;;;12.17;3.37;;;;;;;4.59;74.08;98613.38;6120440;29;20196;-64
2024/01/26 02:03:46;;;;;;;15.17;3.30;;;;;;;4.52;73.64;98578.13;6121782;29;20753;-64
2024/01/26 02:07:00;;;;;;;12.63;3.43;;;;;;;4.53;73.50;98600.88;6121664;29;20694;-64
2024/01/26 02:10:04;;;;;;;22.63;3.93;;;;;;;4.54;73.09;98599.88;6122338;29;20282;-64
2024/01/26 02:13:06;;;;;;;13.40;3.20;;;;;;;4.57;73.19;98608.25;6122056;29;20199;-64
2024/01/26 02:16:09;;;;;;;17.83;3.77;;;;;;;4.48;74.17;98604.03;6105264;29;20278;-63
2024/01/26 02:19:14;;;;;;;11.13;3.33;;;;;;;4.49;73.07;98600.44;6121412;29;20207;-64
2024/01/26 02:22:17;;;;;;;10.53;3.00;;;;;;;4.62;72.31;98607.69;6121120;29;20215;-62
2024/01/26 02:25:20;;;;;;;11.37;3.20;;;;;;;4.83;71.57;98617.56;6121941;29;20215;-63
2024/01/26 02:28:23;;;;;;;15.43;4.07;;;;;;;4.69;72.01;98602.53;6121904;29;20222;-62
2024/01/26 02:31:25;;;;;;;13.63;3.60;;;;;;;4.63;72.89;98611.97;6119948;29;20196;-63
2024/01/26 02:34:28;;;;;;;11.33;3.03;;;;;;;4.56;72.68;98598.69;6121712;29;20640;-64
2024/01/26 02:37:30;;;;;;;13.90;3.17;;;;;;;4.54;73.54;98619.19;6121595;29;20787;-63
2024/01/26 02:40:33;;;;;;;10.10;3.47;;;;;;;4.61;72.72;98621.91;6121977;29;20208;-64
2024/01/26 02:43:35;;;;;;;14.53;3.77;;;;;;;4.77;71.82;98618.28;6121223;29;20215;-63
2024/01/26 02:46:37;;;;;;;11.70;3.57;;;;;;;4.59;72.62;98616.00;6121744;29;20195;-64
2024/01/26 02:49:44;;;;;;;11.87;3.67;;;;;;;4.29;72.84;98580.84;6121838;29;20192;-62
2024/01/26 02:52:47;;;;;;;8.80;3.07;;;;;;;4.54;73.56;98626.28;6121500;29;20195;-62
2024/01/26 02:55:49;;;;;;;12.93;3.43;;;;;;;4.55;73.03;98625.28;6120932;29;20226;-64
2024/01/26 02:58:52;;;;;;;13.33;3.77;;;;;;;4.66;72.26;98630.91;6121875;29;20368;-63
2024/01/26 03:01:54;;;;;;;12.13;2.73;;;;;;;4.64;72.82;98626.84;6115460;29;20203;-63
2024/01/26 03:04:57;;;;;;;11.20;3.67;;;;;;;4.65;72.23;98620.53;6119626;29;20246;-64
2024/01/26 03:07:59;;;;;;;8.47;2.57;;;;;;;4.75;71.64;98621.09;6120858;29;20195;-63
2024/01/26 03:11:01;;;;;;;11.30;3.23;;;;;;;4.71;71.86;98629.56;6106182;29;20202;-64
2024/01/26 03:14:08;;;;;;;10.77;3.80;;;;;;;4.68;72.39;98622.84;6108898;29;20251;-62
2024/01/26 03:17:10;;;;;;;16.40;3.63;;;;;;;4.79;72.01;98622.38;6123356;29;20199;-63
2024/01/26 03:20:14;;;;;;;9.47;2.87;;;;;;;4.78;71.71;98619.91;6125663;29;20275;-61
2024/01/26 03:23:16;;;;;;;17.83;3.47;;;;;;;4.65;71.88;98597.63;6125419;29;20204;-63
2024/01/26 03:26:19;;;;;;;8.20;3.07;;;;;;;4.85;71.65;98618.19;6125625;29;20205;-62
2024/01/26 03:29:21;;;;;;;11.33;3.10;;;;;;;4.83;71.88;98634.22;6121795;29;20782;-62
2024/01/26 03:32:25;;;;;;;18.40;3.80;;;;;;;4.80;72.36;98633.75;6123572;29;20667;-63
2024/01/26 03:35:27;;;;;;;13.03;3.53;;;;;;;4.85;72.23;98634.84;6125639;29;20713;-63
2024/01/26 03:38:30;;;;;;;13.67;3.27;;;;;;;4.68;73.36;98628.13;6125367;29;20341;-64
2024/01/26 03:41:32;;;;;;;12.20;3.27;;;;;;;4.52;74.20;98637.00;6125616;29;20746;-64
2024/01/26 03:44:35;;;;;;;11.70;3.00;;;;;;;4.56;74.11;98637.47;6122319;29;20574;-64
2024/01/26 03:47:37;;;;;;;12.73;3.53;;;;;;;4.53;74.77;98637.81;6125563;29;20663;-64
2024/01/26 03:50:40;;;;;;;17.73;3.60;;;;;;;4.56;74.26;98640.09;6125235;29;20210;-64
2024/01/26 03:53:42;;;;;;;9.90;3.53;;;;;;;4.57;74.64;98629.34;6125125;29;20191;-64
2024/01/26 03:56:45;;;;;;;11.70;3.37;;;;;;;4.64;73.15;98598.63;6124241;29;20199;-64
2024/01/26 03:59:47;;;;;;;11.93;3.60;;;;;;;4.69;73.57;98621.00;6124944;29;20209;-62
2024/01/26 04:02:50;;;;;;;16.30;3.17;;;;;;;4.70;73.78;98618.19;6123193;29;20214;-64
2024/01/26 04:05:53;;;;;;;13.03;3.07;;;;;;;4.70;73.44;98618.19;6123564;29;20311;-63
2024/01/26 04:08:56;;;;;;;9.80;2.90;;;;;;;4.73;73.65;98620.47;6124279;29;20326;-64
2024/01/26 04:11:58;;;;;;;12.90;3.13;;;;;;;4.50;74.94;98625.81;6124648;29;20200;-64
2024/01/26 04:15:01;;;;;;;16.87;3.23;;;;;;;4.48;75.12;98629.59;6124787;29;20200;-63
2024/01/26 04:18:04;;;;;;;13.03;3.43;;;;;;;4.58;74.84;98630.16;6124371;29;20493;-64
2024/01/26 04:21:07;;;;;;;15.07;3.63;;;;;;;4.59;75.09;98629.19;6123958;29;20537;-63
2024/01/26 04:24:15;;;;;;;10.20;3.43;;;;;;;4.60;74.63;98631.66;6105908;29;20204;-63
2024/01/26 04:27:18;;;;;;;14.93;3.63;;;;;;;4.59;74.97;98647.66;6122772;29;20196;-63
2024/01/26 04:30:21;;;;;;;10.67;3.10;;;;;;;4.55;75.37;98638.47;6124988;29;20199;-62
2024/01/26 04:33:23;;;;;;;14.33;3.40;;;;;;;4.19;75.29;98581.09;6123685;28;20446;-63
2024/01/26 04:36:27;;;;;;;21.57;3.50;;;;;;;4.42;76.66;98646.97;6124691;29;20667;-64
2024/01/26 04:39:30;;;;;;;13.33;3.73;;;;;;;4.47;75.88;98638.53;6110954;29;20199;-62
2024/01/26 04:42:34;;;;;;;16.67;3.77;;;;;;;4.45;76.29;98643.19;6124228;29;20218;-63
2024/01/26 04:45:37;;;;;;;13.20;3.47;;;;;;;4.45;76.28;98641.34;6126034;29;20281;-63
2024/01/26 04:48:40;;;;;;;13.77;3.57;;;;;;;4.28;77.09;98640.66;6122455;29;20390;-62
2024/01/26 04:51:43;;;;;;;17.03;3.83;;;;;;;4.21;77.90;98642.38;6121455;29;20200;-63
2024/01/26 04:54:46;;;;;;;12.87;3.10;;;;;;;4.19;77.67;98638.25;6124220;29;20199;-63
2024/01/26 04:57:50;;;;;;;13.13;4.30;;;;;;;4.19;77.33;98633.84;6123275;29;20215;-63
2024/01/26 05:00:53;;;;;;;14.83;4.03;;;;;;;3.97;78.79;98640.75;6124275;29;20719;-63
2024/01/26 05:03:55;;;;;;;11.17;4.13;;;;;;;4.23;77.52;98652.75;6120767;29;20241;-62
2024/01/26 05:06:58;;;;;;;13.83;3.80;;;;;;;4.11;77.92;98653.16;6123568;29;20286;-63
2024/01/26 05:10:01;;;;;;;9.63;3.50;;;;;;;3.73;80.39;98654.91;6123766;29;20203;-62
2024/01/26 05:13:05;;;;;;;13.27;3.53;;;;;;;3.51;81.52;98656.53;6123801;29;20958;-62
2024/01/26 05:16:07;;;;;;;8.30;3.13;;;;;;;3.21;83.09;98654.69;6123269;29;20222;-60
2024/01/26 05:19:10;;;;;;;11.40;3.13;;;;;;;3.14;84.09;98662.44;6123915;29;20205;-61
2024/01/26 05:22:12;;;;;;;11.87;3.83;;;;;;;3.03;85.16;98645.19;6121856;29;20206;-62
2024/01/26 05:25:17;;;;;;;10.70;2.90;;;;;;;3.01;85.02;98647.19;6109421;29;20650;-63
2024/01/26 05:28:21;;;;;;;13.77;3.53;;;;;;;2.73;86.71;98657.28;6120312;29;20220;-62
2024/01/26 05:31:27;;;;;;;10.87;2.90;;;;;;;2.64;87.17;98649.56;6122295;29;20207;-63
2024/01/26 05:34:30;;;;;;;17.63;3.90;;;;;;;2.74;87.12;98651.03;6107744;29;20322;-63
2024/01/26 05:37:33;;;;;;;12.33;3.40;;;;;;;2.50;88.95;98656.31;6124022;29;20330;-63
2024/01/26 05:40:36;;;;;;;12.47;3.60;;;;;;;2.36;89.27;98657.00;6123500;29;20195;-63
2024/01/26 05:43:39;;;;;;;13.70;3.83;;;;;;;2.33;89.66;98660.78;6123556;29;20223;-63
2024/01/26 05:46:42;;;;;;;13.97;4.20;;;;;;;2.65;88.57;98659.09;6122448;29;20199;-63
2024/01/26 05:49:44;;;;;;;14.30;3.90;;;;;;;2.41;90.27;98663.38;6103792;29;20205;-63
2024/01/26 05:52:48;;;;;;;11.60;3.47;;;;;;;2.53;89.78;98654.19;6123283;29;20265;-63
2024/01/26 05:55:51;;;;;;;10.70;3.73;;;;;;;2.49;90.93;98657.31;6103071;29;20207;-62
2024/01/26 05:58:54;;;;;;;16.60;3.60;;;;;;;2.54;90.54;98658.47;6122271;29;20206;-63
2024/01/26 06:01:56;;;;;;;13.80;3.37;;;;;;;2.49;90.95;98665.22;6120142;29;20205;-63
2024/01/26 06:04:59;;;;;;;15.67;3.73;;;;;;;2.39;92.81;98659.31;6121185;29;20283;-62
2024/01/26 06:08:01;;;;;;;11.03;3.37;;;;;;;2.43;92.81;98661.44;6122203;29;20695;-63
2024/01/26 06:11:05;;;;;;;14.97;3.53;;;;;;;2.46;93.45;98661.09;6122778;29;20203;-63
2024/01/26 06:14:08;;;;;;;13.40;4.23;;;;;;;2.54;92.61;98660.28;6119642;29;20277;-62
2024/01/26 06:17:11;;;;;;;15.53;4.23;;;;;;;2.55;92.95;98664.53;6118464;29;20204;-63
2024/01/26 06:20:14;;;;;;;12.63;3.90;;;;;;;2.61;93.60;98645.47;6122246;29;20280;-62
2024/01/26 06:23:17;;;;;;;13.83;3.90;;;;;;;2.97;92.26;98658.22;6122074;29;20752;-63
2024/01/26 06:33:30;;;;;;;12.90;4.17;;;;;;;3.11;91.14;98647.00;6139426;29;20320;-59
2024/01/26 06:36:33;;;;;;;13.60;5.30;;;;;;;3.20;91.79;98674.94;6132498;29;20210;-60
2024/01/26 06:39:35;;;;;;;18.83;3.80;;;;;;;3.10;91.25;98677.75;6135522;29;20574;-59
2024/01/26 06:42:41;;;;;;;18.73;4.00;;;;;;;2.78;92.74;98683.09;6137552;29;20762;-58
2024/01/26 06:45:44;;;;;;;17.60;5.03;;;;;;;2.60;94.37;98683.28;6131680;29;20200;-58
2024/01/26 06:48:46;;;;;;;19.90;4.40;;;;;;;2.50;95.55;98687.88;6133636;29;20228;-59
2024/01/26 06:51:49;;;;;;;19.93;5.03;;;;;;;2.51;96.71;98686.88;6138571;29;20195;-59
2024/01/26 06:54:51;;;;;;;18.50;4.97;;;;;;;2.49;97.70;98694.94;6145848;29;20673;-57
2024/01/26 06:57:53;;;;;;;16.47;4.53;;;;;;;2.66;95.86;98701.03;6133758;29;20203;-59
2024/01/26 07:00:56;;;;;;;12.00;4.10;;;;;;;2.41;97.61;98688.88;6149807;28;20209;-58
2024/01/26 07:03:59;;;;;;;13.77;4.17;;;;;;;2.37;98.35;98674.44;6168508;28;20225;-61
2024/01/26 07:07:02;;;;;;;18.47;4.10;;;;;;;2.51;97.80;98694.78;6164480;28;20201;-60
2024/01/26 07:10:05;;;;;;;14.33;3.57;;;;;;;2.44;98.90;98688.56;6170666;28;20759;-58
2024/01/26 07:13:08;;;;;;;18.67;4.87;;;;;;;2.34;99.96;98696.59;6164818;28;20863;-59
2024/01/26 07:16:10;;;;;;;13.63;3.97;;;;;;;2.43;99.98;98684.28;6148010;28;20663;-59
2024/01/26 07:19:12;;;;;;;16.07;4.57;;;;;;;2.63;98.80;98705.81;6161218;28;20224;-59
2024/01/26 07:22:15;;;;;;;18.30;4.13;;;;;;;2.53;99.58;98704.16;6168475;28;20247;-59
2024/01/26 07:25:19;;;;;;;15.97;4.20;;;;;;;2.55;99.88;98702.19;6167729;28;20278;-58
2024/01/26 07:28:21;;;;;;;14.07;4.77;;;;;;;2.53;100.00;98703.34;6164165;28;20194;-59
2024/01/26 07:31:23;;;;;;;11.47;4.50;;;;;;;2.77;100.00;98710.41;6166427;28;20239;-60
2024/01/26 07:34:28;;;;;;;13.60;4.07;;;;;;;2.80;99.98;98704.78;6159837;28;20338;-59
2024/01/26 07:37:33;;;;;;;14.40;3.60;;;;;;;3.01;98.34;98702.47;6161829;28;20194;-58
2024/01/26 07:40:36;;;;;;;15.77;4.20;;;;;;;3.00;99.09;98708.69;6157520;28;20191;-58
2024/01/26 07:43:38;;;;;;;14.90;4.53;;;;;;;3.15;98.76;98714.09;6160499;28;20301;-59
2024/01/26 07:46:41;;;;;;;13.43;4.37;;;;;;;3.15;98.95;98706.19;6160667;28;20265;-59
2024/01/26 07:49:43;;;;;;;10.93;3.77;;;;;;;3.46;98.48;98695.72;6163879;28;20194;-58
2024/01/26 07:52:46;;;;;;;16.17;3.87;;;;;;;3.31;98.94;98692.16;6159127;28;20240;-59
2024/01/26 07:55:49;;;;;;;17.90;4.10;;;;;;;3.29;100.00;98694.94;6162281;28;20199;-58
2024/01/26 07:58:51;;;;;;;12.47;4.33;;;;;;;3.72;100.00;98695.44;6167843;28;20204;-61
2024/01/26 08:01:53;;;;;;;10.37;3.73;;;;;;;3.81;100.00;98699.66;6162887;28;20206;-58
2024/01/26 08:04:56;;;;;;;14.37;3.60;;;;;;;4.03;100.00;98698.03;6160530;28;20218;-61
2024/01/26 08:07:59;;;;;;;17.60;4.67;;;;;;;4.17;100.00;98706.19;6166511;28;20198;-59
2024/01/26 08:11:02;;;;;;;13.20;4.30;;;;;;;4.29;100.00;98702.16;6162449;28;20596;-60
2024/01/26 08:14:05;;;;;;;10.60;3.60;;;;;;;4.39;100.00;98702.75;6168946;28;20183;-59
2024/01/26 08:17:08;;;;;;;14.43;4.30;;;;;;;4.50;100.00;98696.22;6159156;28;20208;-59
2024/01/26 08:20:11;;;;;;;9.63;3.33;;;;;;;4.55;100.00;98684.13;6167727;28;20209;-59
2024/01/26 08:23:15;;;;;;;13.70;4.10;;;;;;;4.77;100.00;98690.34;6154869;28;20351;-59
2024/01/26 08:26:18;;;;;;;14.60;3.63;;;;;;;5.30;100.00;98693.75;6164102;28;20199;-59
2024/01/26 08:29:24;;;;;;;13.30;3.13;;;;;;;5.35;100.00;98691.41;6156682;28;20269;-60
2024/01/26 08:32:27;;;;;;;10.47;3.43;;;;;;;5.55;100.00;98694.28;6156503;28;20793;-60
2024/01/26 08:35:29;;;;;;;11.27;3.23;;;;;;;5.77;98.68;98697.00;6159022;28;20197;-60
2024/01/26 08:38:33;;;;;;;9.97;3.47;;;;;;;5.86;97.62;98693.22;6159567;28;20212;-60
2024/01/26 08:41:35;;;;;;;11.23;4.23;;;;;;;5.85;98.29;98694.22;6167708;28;20198;-61
2024/01/26 08:44:40;;;;;;;11.30;3.57;;;;;;;5.88;98.22;98694.69;6155627;28;20223;-60
2024/01/26 08:47:43;;;;;;;9.80;3.77;;;;;;;5.91;98.87;98689.06;6161922;28;20404;-60
2024/01/26 08:50:46;;;;;;;9.73;2.80;;;;;;;6.01;98.54;98698.50;6151180;28;20671;-59
2024/01/26 08:53:48;;;;;;;9.63;3.30;;;;;;;6.12;98.54;98690.91;6158683;28;20202;-60
2024/01/26 08:56:51;;;;;;;13.13;3.67;;;;;;;6.25;96.16;98694.69;6162643;28;20200;-61
2024/01/26 08:59:53;;;;;;;10.63;3.87;;;;;;;6.39;94.11;98696.44;6157183;28;20210;-59
2024/01/26 09:02:55;;;;;;;9.37;3.73;;;;;;;6.42;94.29;98702.19;6161856;28;20216;-59
2024/01/26 09:05:58;;;;;;;8.30;3.50;;;;;;;6.38;93.64;98697.44;6158768;28;20208;-59
2024/01/26 09:09:02;;;;;;;10.27;3.97;;;;;;;6.44;95.11;98688.75;6149073;28;20205;-59
2024/01/26 09:12:05;;;;;;;7.30;3.40;;;;;;;6.41;95.86;98702.38;6153210;28;20669;-58
2024/01/26 09:15:08;;;;;;;10.40;4.67;;;;;;;6.60;94.38;98708.84;6156529;28;20548;-60
2024/01/26 09:18:11;;;;;;;9.30;3.30;;;;;;;6.52;95.89;98706.34;6157955;28;20293;-60
2024/01/26 09:21:14;;;;;;;10.33;3.10;;;;;;;6.51;94.89;98718.75;6164700;28;20263;-60
2024/01/26 09:24:17;;;;;;;7.30;3.50;;;;;;;6.48;95.05;98703.25;6156548;28;20221;-60
2024/01/26 09:27:21;;;;;;;9.47;3.30;;;;;;;6.56;96.66;98705.78;6152812;28;20205;-60
2024/01/26 09:30:24;;;;;;;9.60;3.67;;;;;;;6.60;95.58;98708.84;6138708;28;20209;-60
2024/01/26 09:33:27;;;;;;;12.33;3.47;;;;;;;6.69;94.89;98697.09;6152435;28;20241;-60
2024/01/26 09:36:29;;;;;;;7.60;2.60;;;;;;;6.64;95.13;98687.09;6158569;28;20202;-60
2024/01/26 09:39:32;;;;;;;11.53;4.23;;;;;;;6.65;95.52;98688.75;6156509;28;20213;-60
2024/01/26 09:42:34;;;;;;;5.30;3.00;;;;;;;6.73;96.80;98687.75;6160989;28;20236;-60
2024/01/26 09:45:37;;;;;;;5.20;3.07;;;;;;;6.80;95.49;98690.47;6155456;28;20562;-60
2024/01/26 09:48:39;;;;;;;7.03;3.30;;;;;;;6.83;97.06;98690.91;6141756;28;20240;-59
2024/01/26 09:51:43;;;;;;;6.13;2.67;;;;;;;6.81;97.06;98692.13;6162346;28;20716;-60
2024/01/26 09:54:47;;;;;;;6.87;3.10;;;;;;;6.80;96.70;98679.88;6147843;28;20301;-60
2024/01/26 09:57:51;;;;;;;5.57;2.40;;;;;;;6.85;97.52;98675.66;6140907;28;20868;-59
2024/01/26 10:00:55;;;;;;;7.17;2.90;;;;;;;6.79;98.52;98675.59;6154417;28;20325;-58
2024/01/26 10:03:58;;;;;;;9.13;2.77;;;;;;;6.75;97.20;98675.16;6163582;28;20224;-59
2024/01/26 10:07:02;;;;;;;5.57;2.50;;;;;;;6.77;97.45;98670.50;6150224;28;20201;-60
2024/01/26 10:10:05;;;;;;;6.23;2.73;;;;;;;6.76;96.60;98660.09;6164700;28;20286;-60
2024/01/26 10:13:08;;;;;;;8.03;2.30;;;;;;;6.76;97.23;98660.91;6157832;28;20567;-60
2024/01/26 10:16:13;;;;;;;4.37;2.13;;;;;;;6.80;99.27;98645.44;6164949;28;20191;-60
2024/01/26 10:19:23;;;;;;;5.57;2.23;;;;;;;7.15;99.34;98649.75;6145702;28;20209;-59
2024/01/26 10:22:27;;;;;;;3.13;1.83;;;;;;;6.96;100.00;98653.09;6165814;28;20202;-60
2024/01/26 10:25:30;;;;;;;4.73;2.40;;;;;;;6.73;100.00;98625.03;6150095;28;20308;-59
2024/01/26 10:28:32;;;;;;;6.63;1.93;;;;;;;6.67;100.00;98635.59;6163339;28;20201;-60
2024/01/26 10:31:35;;;;;;;3.33;1.90;;;;;;;6.62;100.00;98628.22;6161989;28;20240;-59
2024/01/26 10:34:39;;;;;;;3.37;1.47;;;;;;;6.55;100.00;98624.72;6155218;28;20204;-60
2024/01/26 10:37:45;;;;;;;4.10;1.90;;;;;;;6.57;100.00;98617.41;6149056;28;20205;-61
2024/01/26 10:40:53;;;;;;;2.60;1.93;;;;;;;6.56;100.00;98610.47;6160677;28;20204;-61
2024/01/26 10:43:57;;;;;;;2.40;1.77;;;;;;;6.57;100.00;98608.63;6162233;28;20210;-60
2024/01/26 10:46:59;;;;;;;3.03;1.63;;;;;;;6.52;100.00;98601.28;6154157;28;20217;-60
2024/01/26 10:50:06;;;;;;;5.23;1.90;;;;;;;6.51;100.00;98594.34;6159385;28;20212;-60
2024/01/26 10:53:11;;;;;;;3.47;1.80;;;;;;;6.47;100.00;98588.63;6164659;28;20194;-60
2024/01/26 10:56:13;;;;;;;2.77;1.80;;;;;;;6.53;100.00;98583.56;6158703;28;20233;-59
2024/01/26 10:59:17;;;;;;;2.70;1.80;;;;;;;6.52;100.00;98566.03;6161625;28;20197;-59
2024/01/26 11:02:36;;;;;;;2.57;1.80;;;;;;;6.56;100.00;98567.28;6155452;28;20230;-59
2024/01/26 11:05:39;;;;;;;3.30;1.83;;;;;;;6.64;100.00;98564.47;6158918;28;20214;-59
2024/01/26 11:08:42;;;;;;;2.33;1.50;;;;;;;6.62;100.00;98567.34;6154817;28;20199;-60
2024/01/26 11:11:50;;;;;;;4.27;2.07;;;;;;;6.54;100.00;98543.66;6155106;28;20202;-60
2024/01/26 11:15:04;;;;;;;1.83;1.57;;;;;;;6.68;100.00;98550.66;6161099;28;20282;-60
2024/01/26 11:18:07;;;;;;;3.10;1.60;;;;;;;6.78;100.00;98544.19;6161347;28;20213;-60
2024/01/26 11:21:19;;;;;;;3.00;1.80;;;;;;;6.78;100.00;98539.72;6165246;28;20238;-61
2024/01/26 11:24:24;;;;;;;3.30;1.37;;;;;;;6.81;100.00;98534.03;6161241;28;20210;-60
2024/01/26 11:27:27;;;;;;;2.03;1.70;;;;;;;6.92;100.00;98520.22;6151555;28;20555;-60
2024/01/26 11:30:30;;;;;;;1.60;1.50;;;;;;;7.12;100.00;98519.47;6151422;28;20202;-60
2024/01/26 11:33:37;;;;;;;2.43;1.80;;;;;;;7.19;100.00;98515.84;6158503;28;20216;-59
2024/01/26 11:36:40;;;;;;;2.30;2.10;;;;;;;7.30;100.00;98518.94;6161410;28;20230;-59
2024/01/26 11:39:44;;;;;;;1.93;1.30;;;;;;;7.37;100.00;98495.91;6165675;28;20209;-58
2024/01/26 11:42:51;;;;;;;1.60;1.50;;;;;;;7.57;100.00;98507.34;6165505;28;20238;-60
2024/01/26 11:45:55;;;;;;;2.17;1.30;;;;;;;7.70;100.00;98503.91;6140584;28;20222;-60
2024/01/26 11:48:58;;;;;;;4.27;1.30;;;;;;;7.78;100.00;98486.97;6158778;28;20199;-61
2024/01/26 11:52:03;;;;;;;1.40;1.30;;;;;;;7.75;100.00;98483.72;6160437;28;20211;-59
2024/01/26 11:55:06;;;;;;;2.87;1.20;;;;;;;7.72;100.00;98478.81;6162932;28;20190;-59
2024/01/26 11:58:11;;;;;;;1.10;1.00;;;;;;;7.84;100.00;98476.38;6159748;28;20281;-59
2024/01/26 12:01:13;;;;;;;1.70;1.00;;;;;;;7.82;100.00;98473.09;6157452;28;20202;-60
2024/01/26 12:04:16;;;;;;;1.90;1.80;;;;;;;8.05;100.00;98469.22;6166764;28;20683;-60
2024/01/26 12:07:19;;;;;;;3.40;1.50;;;;;;;8.01;100.00;98456.34;6163079;28;20201;-60
2024/01/26 12:10:23;;;;;;;1.47;1.37;;;;;;;8.07;100.00;98454.69;6160753;28;20676;-60
2024/01/26 12:13:26;;;;;;;1.60;1.40;;;;;;;8.09;100.00;98446.56;6164961;28;20190;-61
2024/01/26 12:16:32;;;;;;;2.10;1.87;;;;;;;8.16;100.00;98436.72;6164685;28;20276;-60
2024/01/26 12:19:35;;;;;;;2.20;1.90;;;;;;;8.47;100.00;98442.22;6158454;28;20199;-60
2024/01/26 12:22:37;;;;;;;1.93;1.83;;;;;;;8.39;100.00;98439.78;6164038;28;20689;-59
2024/01/26 12:25:40;;;;;;;2.80;2.30;;;;;;;8.37;100.00;98428.53;6156336;28;20208;-60
2024/01/26 12:28:42;;;;;;;3.43;2.77;;;;;;;8.38;100.00;98424.88;6166564;28;20289;-60
2024/01/26 12:31:45;;;;;;;2.30;2.03;;;;;;;8.33;100.00;98416.69;6158042;28;20249;-60
2024/01/26 12:34:47;;;;;;;2.43;1.73;;;;;;;8.42;100.00;98410.16;6159205;28;20194;-60
2024/01/26 12:37:50;;;;;;;2.30;1.90;;;;;;;8.37;100.00;98404.63;6177283;28;20185;-60
2024/01/26 12:40:52;;;;;;;2.07;1.90;;;;;;;8.48;100.00;98405.84;6168517;28;20202;-61
2024/01/26 12:43:56;;;;;;;4.03;2.00;;;;;;;8.44;100.00;98381.56;6171084;28;20260;-61
2024/01/26 12:47:00;;;;;;;2.40;1.80;;;;;;;8.50;100.00;98386.00;6157723;28;20292;-61
2024/01/26 12:50:05;;;;;;;1.30;1.20;;;;;;;8.53;99.86;98374.97;6164258;28;20219;-61
2024/01/26 12:53:10;;;;;;;1.67;1.57;;;;;;;8.68;99.58;98385.31;6147937;28;20195;-61
2024/01/26 12:56:13;;;;;;;2.30;1.33;;;;;;;8.81;98.72;98381.78;6161041;28;20555;-61
2024/01/26 12:59:15;;;;;;;1.80;1.20;;;;;;;8.83;98.05;98360.31;6164913;28;20524;-61
2024/01/26 13:02:18;;;;;;;1.43;1.33;;;;;;;8.85;99.36;98382.16;6171367;28;20189;-60
2024/01/26 13:05:20;;;;;;;2.53;1.30;;;;;;;8.75;100.00;98378.13;6172020;28;20678;-60
2024/01/26 13:08:23;;;;;;;2.70;1.57;;;;;;;8.80;100.00;98358.91;6168102;28;20203;-60
2024/01/26 13:11:25;;;;;;;1.77;1.40;;;;;;;8.59;100.00;98352.06;6173430;28;20538;-57
2024/01/26 13:14:28;;;;;;;2.50;1.30;;;;;;;8.40;100.00;98345.81;6166118;28;20190;-60
2024/01/26 13:17:30;;;;;;;1.50;1.40;;;;;;;8.33;100.00;98346.88;6157325;28;20198;-60
2024/01/26 13:20:33;;;;;;;1.60;1.50;;;;;;;8.39;100.00;98340.72;6168365;28;20203;-60
2024/01/26 13:23:36;;;;;;;2.43;1.10;;;;;;;8.33;100.00;98337.06;6165689;28;20204;-61
2024/01/26 13:26:39;;;;;;;1.97;1.80;;;;;;;8.30;100.00;98332.16;6163423;28;20214;-60
2024/01/26 13:29:42;;;;;;;2.27;1.50;;;;;;;8.39;100.00;98324.81;6173300;28;20256;-59
2024/01/26 13:32:47;;;;;;;2.50;1.30;;;;;;;8.45;100.00;98329.25;6158607;28;20256;-59
2024/01/26 13:35:50;;;;;;;1.83;1.37;;;;;;;8.50;100.00;98308.19;6170239;28;20189;-60
2024/01/26 13:38:53;;;;;;;1.53;1.23;;;;;;;8.54;100.00;98306.75;6164457;28;20197;-60
2024/01/26 13:41:55;;;;;;;1.53;0.90;;;;;;;8.46;100.00;98307.78;6166301;28;20330;-60
2024/01/26 13:45:00;;;;;;;1.30;1.20;;;;;;;8.58;100.00;98321.22;6169948;28;20623;-60
2024/01/26 13:48:04;;;;;;;0.90;0.90;;;;;;;8.41;100.00;98293.53;6171037;28;20205;-59
2024/01/26 13:51:13;;;;;;;1.37;0.90;;;;;;;8.49;100.00;98304.72;6148287;28;20207;-59
2024/01/26 13:54:16;;;;;;;1.73;1.20;;;;;;;8.44;100.00;98285.16;6164115;28;20182;-60
2024/01/26 13:57:19;;;;;;;1.70;1.30;;;;;;;8.52;100.00;98287.53;6166992;28;20194;-60
2024/01/26 14:00:22;;;;;;;1.30;1.20;;;;;;;8.73;100.00;98291.72;6170262;28;20206;-59
2024/01/26 14:03:25;;;;;;;1.47;1.10;;;;;;;8.90;99.84;98273.41;6168132;28;20564;-59
2024/01/26 14:06:28;;;;;;;2.27;0.90;;;;;;;8.86;99.64;98258.91;6165206;28;20226;-60
2024/01/26 14:09:34;;;;;;;1.23;1.00;;;;;;;9.06;98.22;98264.88;6169856;28;20278;-61
2024/01/26 14:12:37;;;;;;;0.93;0.83;;;;;;;9.00;97.34;98261.25;6173593;28;20248;-59
2024/01/26 14:15:40;;;;;;;1.70;0.90;;;;;;;9.04;98.59;98257.13;6162791;28;20210;-60
2024/01/26 14:18:42;;;;;;;0.93;0.77;;;;;;;9.07;95.85;98249.78;6163728;28;20201;-60
2024/01/26 14:21:45;;;;;;;1.37;0.80;;;;;;;8.98;98.45;98263.31;6170699;28;20198;-60
2024/01/26 14:24:47;;;;;;;0.70;0.70;;;;;;;8.97;95.30;98240.44;6159151;28;20211;-60
2024/01/26 14:27:50;;;;;;;0.90;0.77;;;;;;;9.10;94.29;98249.31;6172605;28;20193;-60
2024/01/26 14:30:53;;;;;;;1.13;0.90;;;;;;;8.99;95.48;98234.91;6160865;28;20236;-60